Time;durP1;ratioP1;P1;durP2;ratioP2;P2;SDS_P1;SDS_P2;PMS_P1;PMS_P2;Temp;Humidity;BMP_temperature;BMP_pressure;BME280_temperature;BME280_humidity;BME280_pressure;Samples;Min_cycle;Max_cycle;Signal;HPM_P1;HPM_P2
2021/05/05 00:01:32;;;;;;;3.30;1.57;;;7.00;99.90;;;;;;5063326;28;20647;-74
2021/05/05 00:03:57;;;;;;;4.77;1.80;;;7.00;99.90;;;;;;5072261;28;20568;-74
2021/05/05 00:06:23;;;;;;;2.57;1.50;;;6.90;99.90;;;;;;5084277;28;20442;-74
2021/05/05 00:08:49;;;;;;;2.07;1.87;;;7.00;99.90;;;;;;5072828;28;20194;-74
2021/05/05 00:11:14;;;;;;;3.20;1.73;;;7.00;99.90;;;;;;5090283;28;20252;-74
2021/05/05 00:13:40;;;;;;;5.47;1.80;;;7.00;99.90;;;;;;5072206;28;20190;-74
2021/05/05 00:16:07;;;;;;;3.67;2.30;;;7.00;99.90;;;;;;5059280;28;20421;-75
2021/05/05 00:18:33;;;;;;;1.60;1.50;;;7.00;99.90;;;;;;5074224;28;20552;-75
2021/05/05 00:20:59;;;;;;;1.80;1.40;;;6.90;99.90;;;;;;5078285;28;20439;-76
2021/05/05 00:23:25;;;;;;;2.60;1.77;;;6.90;99.90;;;;;;5089622;28;20451;-75
2021/05/05 00:25:50;;;;;;;2.10;1.87;;;7.00;99.90;;;;;;5089014;28;20458;-74
2021/05/05 00:28:16;;;;;;;2.17;1.93;;;7.00;99.90;;;;;;5059510;28;20459;-74
2021/05/05 00:30:42;;;;;;;5.10;1.70;;;6.90;99.90;;;;;;5078710;28;20180;-75
2021/05/05 00:33:07;;;;;;;2.17;1.87;;;6.90;99.90;;;;;;5068374;28;20247;-75
2021/05/05 00:35:33;;;;;;;3.80;2.20;;;6.90;99.90;;;;;;5094780;28;20189;-75
2021/05/05 00:37:59;;;;;;;1.77;1.60;;;6.90;99.90;;;;;;5095191;28;20201;-75
2021/05/05 00:40:25;;;;;;;3.20;1.63;;;7.00;99.90;;;;;;5085250;28;20846;-75
2021/05/05 00:42:51;;;;;;;2.70;2.10;;;7.00;99.90;;;;;;5089007;28;20177;-75
2021/05/05 00:45:17;;;;;;;7.07;2.80;;;7.00;99.90;;;;;;5079860;28;20472;-74
2021/05/05 00:47:43;;;;;;;3.60;2.10;;;6.90;99.90;;;;;;5074587;28;20205;-74
2021/05/05 00:50:13;;;;;;;5.27;2.10;;;7.00;99.90;;;;;;5075146;28;20639;-74
2021/05/05 00:52:39;;;;;;;3.90;1.87;;;6.90;99.90;;;;;;5075588;28;20499;-75
2021/05/05 00:55:05;;;;;;;5.30;2.43;;;6.90;99.90;;;;;;5075556;28;20470;-74
2021/05/05 00:57:32;;;;;;;7.23;1.80;;;6.90;99.90;;;;;;5057603;28;20988;-74
2021/05/05 00:59:57;;;;;;;2.80;1.53;;;6.90;99.90;;;;;;5078335;28;20420;-74
2021/05/05 01:02:23;;;;;;;5.13;2.20;;;6.90;99.90;;;;;;5087605;28;20423;-74
2021/05/05 01:04:49;;;;;;;3.63;1.63;;;6.90;99.90;;;;;;5061581;28;20242;-74
2021/05/05 01:07:15;;;;;;;5.83;2.30;;;7.00;99.90;;;;;;5075476;28;20166;-74
2021/05/05 01:09:44;;;;;;;3.33;2.30;;;7.00;99.90;;;;;;5074764;28;20431;-75
2021/05/05 01:12:10;;;;;;;3.10;2.17;;;7.00;99.90;;;;;;5068296;28;20170;-74
2021/05/05 01:14:36;;;;;;;5.00;2.67;;;7.00;99.90;;;;;;5073952;28;20960;-74
2021/05/05 01:17:02;;;;;;;4.17;2.67;;;7.00;99.90;;;;;;5080343;28;20442;-75
2021/05/05 01:19:28;;;;;;;3.77;1.60;;;7.00;99.90;;;;;;5090962;28;20261;-74
2021/05/05 01:21:54;;;;;;;3.30;1.70;;;7.00;99.90;;;;;;5088461;28;20588;-74
2021/05/05 01:24:19;;;;;;;2.80;1.80;;;7.00;99.90;;;;;;5072489;28;20574;-74
2021/05/05 01:26:45;;;;;;;3.50;2.30;;;7.00;99.90;;;;;;5076172;28;20178;-74
2021/05/05 01:29:11;;;;;;;4.37;1.77;;;7.00;99.90;;;;;;5086078;28;20608;-75
2021/05/05 01:31:36;;;;;;;3.37;2.07;;;7.10;99.90;;;;;;5062945;28;20287;-74
2021/05/05 01:34:02;;;;;;;5.03;2.13;;;7.10;99.90;;;;;;5090878;28;20470;-75
2021/05/05 01:36:31;;;;;;;5.27;1.77;;;7.10;99.90;;;;;;5094062;28;20188;-74
2021/05/05 01:38:57;;;;;;;3.00;2.00;;;7.10;99.90;;;;;;5085804;28;20176;-75
2021/05/05 01:41:23;;;;;;;4.00;2.23;;;7.10;99.90;;;;;;5079298;28;20518;-74
2021/05/05 01:43:48;;;;;;;3.03;2.47;;;7.00;99.90;;;;;;5078770;28;20545;-74
2021/05/05 01:46:17;;;;;;;5.23;2.07;;;7.00;99.90;;;;;;5075334;28;20185;-74
2021/05/05 01:48:43;;;;;;;5.47;2.87;;;7.00;99.90;;;;;;5092280;28;20254;-74
2021/05/05 01:51:08;;;;;;;4.77;2.80;;;7.00;99.90;;;;;;5076084;28;20444;-75
2021/05/05 01:53:34;;;;;;;2.63;2.20;;;7.00;99.90;;;;;;5091644;28;20205;-75
2021/05/05 01:56:01;;;;;;;4.40;3.40;;;6.80;99.90;;;;;;5078044;28;20206;-74
2021/05/05 01:58:26;;;;;;;7.83;2.50;;;6.80;99.90;;;;;;5093318;28;20200;-75
2021/05/05 02:00:52;;;;;;;10.97;2.70;;;6.90;99.90;;;;;;5086205;28;20427;-74
2021/05/05 02:03:18;;;;;;;9.63;6.63;;;6.90;99.90;;;;;;5072918;28;20268;-75
2021/05/05 02:05:43;;;;;;;10.50;3.20;;;6.90;99.90;;;;;;5080831;28;20177;-75
2021/05/05 02:08:09;;;;;;;2.80;2.50;;;6.70;99.90;;;;;;5093196;28;20565;-75
2021/05/05 02:10:34;;;;;;;5.50;2.60;;;6.80;99.90;;;;;;5077967;28;20178;-76
2021/05/05 02:13:00;;;;;;;5.30;3.10;;;6.80;99.90;;;;;;5083058;28;20214;-76
2021/05/05 02:15:26;;;;;;;7.50;3.07;;;6.80;99.90;;;;;;5084858;28;20201;-76
2021/05/05 02:17:52;;;;;;;11.73;4.23;;;6.70;99.90;;;;;;5092781;28;20661;-75
2021/05/05 02:20:21;;;;;;;5.53;2.57;;;6.70;99.90;;;;;;5078373;28;20203;-75
2021/05/05 02:22:48;;;;;;;3.57;2.33;;;6.70;99.90;;;;;;5092802;28;20527;-74
2021/05/05 02:25:13;;;;;;;6.10;2.97;;;6.70;99.90;;;;;;5082402;28;20475;-75
2021/05/05 02:27:40;;;;;;;3.20;2.90;;;6.70;99.90;;;;;;5071332;28;20487;-74
2021/05/05 02:30:09;;;;;;;9.40;3.27;;;6.80;99.90;;;;;;5079121;28;20177;-75
2021/05/05 02:32:35;;;;;;;4.90;2.97;;;6.70;99.90;;;;;;5065744;28;20426;-74
2021/05/05 02:35:01;;;;;;;3.70;3.07;;;6.70;99.90;;;;;;5084779;28;20448;-74
2021/05/05 02:37:26;;;;;;;4.10;2.83;;;6.70;99.90;;;;;;5073341;28;20797;-74
2021/05/05 02:39:52;;;;;;;7.03;3.10;;;6.70;99.90;;;;;;5072325;28;20545;-74
2021/05/05 02:42:19;;;;;;;4.50;2.90;;;6.70;99.90;;;;;;5093114;28;20696;-75
2021/05/05 02:44:48;;;;;;;8.17;2.97;;;6.70;99.90;;;;;;5093247;28;20439;-76
2021/05/05 02:47:15;;;;;;;7.53;3.23;;;6.60;99.90;;;;;;5060361;28;20424;-74
2021/05/05 02:49:40;;;;;;;8.43;3.17;;;6.70;99.90;;;;;;5072813;28;20419;-74
2021/05/05 02:52:06;;;;;;;5.03;3.40;;;6.70;99.90;;;;;;5073009;28;20424;-74
2021/05/05 02:54:32;;;;;;;11.40;3.70;;;6.70;99.90;;;;;;5075062;28;20194;-74
2021/05/05 02:56:58;;;;;;;7.33;3.83;;;6.70;99.90;;;;;;5082745;28;20205;-74
2021/05/05 02:59:25;;;;;;;10.47;3.80;;;6.70;99.90;;;;;;5072783;28;21074;-74
2021/05/05 03:01:52;;;;;;;9.00;5.63;;;6.70;99.90;;;;;;5056667;28;20450;-75
2021/05/05 03:04:18;;;;;;;6.50;3.67;;;6.70;99.90;;;;;;5053999;28;20435;-75
2021/05/05 03:06:44;;;;;;;9.53;3.90;;;6.70;99.90;;;;;;5059729;28;20427;-75
2021/05/05 03:09:10;;;;;;;6.23;3.60;;;6.80;99.90;;;;;;5087541;28;20821;-74
2021/05/05 03:11:35;;;;;;;8.10;4.70;;;6.70;99.90;;;;;;5077586;28;20541;-76
2021/05/05 03:14:01;;;;;;;13.83;10.80;;;6.80;99.90;;;;;;5064362;28;20447;-74
2021/05/05 03:16:27;;;;;;;9.87;5.73;;;6.70;99.90;;;;;;5066291;28;20181;-74
2021/05/05 03:18:53;;;;;;;8.30;4.30;;;6.70;99.90;;;;;;5093069;28;20242;-75
2021/05/05 03:21:19;;;;;;;9.03;3.47;;;6.70;99.90;;;;;;5078850;28;20536;-74
2021/05/05 03:23:45;;;;;;;7.80;3.27;;;6.80;99.90;;;;;;5092908;28;20424;-74
2021/05/05 03:26:10;;;;;;;10.40;4.00;;;6.80;99.90;;;;;;5087183;28;20431;-75
2021/05/05 03:28:36;;;;;;;10.00;4.20;;;6.80;99.90;;;;;;5081292;28;20243;-75
2021/05/05 03:31:01;;;;;;;5.33;3.80;;;6.70;99.90;;;;;;5074638;28;20174;-75
2021/05/05 03:33:27;;;;;;;9.03;4.40;;;6.70;99.90;;;;;;5070899;28;20187;-75
2021/05/05 03:35:53;;;;;;;5.90;3.80;;;6.70;99.90;;;;;;5072411;28;20178;-74
2021/05/05 03:38:18;;;;;;;11.03;4.10;;;6.70;99.90;;;;;;5072500;28;20174;-74
2021/05/05 03:40:44;;;;;;;8.70;3.60;;;6.70;99.90;;;;;;5073481;28;20178;-74
2021/05/05 03:43:10;;;;;;;7.17;4.00;;;6.70;99.90;;;;;;5081891;28;20261;-75
2021/05/05 03:45:35;;;;;;;14.93;4.77;;;6.60;99.90;;;;;;5090091;28;20205;-75
2021/05/05 03:48:01;;;;;;;7.57;3.43;;;6.60;99.90;;;;;;5090151;28;20193;-74
2021/05/05 03:50:27;;;;;;;8.83;4.90;;;6.60;99.90;;;;;;5086223;28;20170;-74
2021/05/05 03:52:52;;;;;;;5.63;3.60;;;6.60;99.90;;;;;;5059202;28;20662;-75
2021/05/05 03:55:19;;;;;;;9.73;4.40;;;6.60;99.90;;;;;;5072942;28;20439;-75
2021/05/05 03:57:44;;;;;;;8.30;4.33;;;6.60;99.90;;;;;;5091423;28;20177;-75
2021/05/05 04:00:10;;;;;;;13.20;4.33;;;6.50;99.90;;;;;;5066314;28;20786;-74
2021/05/05 04:02:36;;;;;;;12.70;4.63;;;6.50;99.90;;;;;;5076756;28;20186;-74
2021/05/05 04:05:02;;;;;;;6.63;4.73;;;6.50;99.90;;;;;;5070415;28;20447;-74
2021/05/05 04:07:28;;;;;;;10.60;4.60;;;6.50;99.90;;;;;;5071149;28;20198;-75
2021/05/05 04:09:55;;;;;;;11.10;4.77;;;6.50;99.90;;;;;;5079270;28;20424;-75
2021/05/05 04:12:21;;;;;;;9.73;4.80;;;6.50;99.90;;;;;;5084326;28;20177;-75
2021/05/05 04:14:46;;;;;;;6.70;4.57;;;6.60;99.90;;;;;;5078313;28;20967;-75
2021/05/05 04:17:12;;;;;;;11.53;4.97;;;6.60;99.90;;;;;;5071969;28;20170;-75
2021/05/05 04:19:37;;;;;;;10.13;4.23;;;6.60;99.90;;;;;;5075576;28;20177;-75
2021/05/05 04:22:03;;;;;;;15.73;3.90;;;6.50;99.90;;;;;;5072300;28;20174;-75
2021/05/05 04:24:29;;;;;;;6.60;4.37;;;6.50;99.90;;;;;;5081751;28;20224;-75
2021/05/05 04:26:56;;;;;;;10.80;4.50;;;6.60;99.90;;;;;;5068534;28;20246;-75
2021/05/05 04:29:22;;;;;;;10.30;5.03;;;6.50;99.90;;;;;;5080214;28;20837;-75
2021/05/05 04:31:48;;;;;;;6.40;3.80;;;6.50;99.90;;;;;;5053956;28;20459;-75
2021/05/05 04:34:15;;;;;;;9.63;5.03;;;6.50;99.90;;;;;;5070570;28;20454;-75
2021/05/05 04:36:41;;;;;;;11.20;4.90;;;6.50;99.90;;;;;;5073824;28;20835;-75
2021/05/05 04:39:06;;;;;;;7.03;4.93;;;6.50;99.90;;;;;;5085906;28;20441;-75
2021/05/05 04:41:32;;;;;;;7.20;4.40;;;6.50;99.90;;;;;;5077974;28;20204;-74
2021/05/05 04:43:58;;;;;;;12.60;5.10;;;6.60;99.90;;;;;;5090426;28;20198;-76
2021/05/05 04:46:23;;;;;;;8.27;5.10;;;6.60;99.90;;;;;;5072381;28;20181;-75
2021/05/05 04:48:49;;;;;;;9.80;5.10;;;6.70;99.90;;;;;;5089517;28;20482;-75
2021/05/05 04:51:14;;;;;;;14.43;5.70;;;6.70;99.90;;;;;;5085742;28;20214;-74
2021/05/05 04:53:40;;;;;;;5.43;4.87;;;6.70;99.90;;;;;;5070254;28;20572;-74
2021/05/05 04:56:06;;;;;;;10.33;5.03;;;6.70;99.90;;;;;;5086281;28;20173;-75
2021/05/05 04:58:31;;;;;;;16.40;5.80;;;6.80;99.90;;;;;;5091839;28;20181;-75
2021/05/05 05:00:57;;;;;;;8.73;4.10;;;6.80;99.90;;;;;;5081311;28;20252;-74
2021/05/05 05:03:22;;;;;;;15.43;5.30;;;6.90;99.90;;;;;;5091787;28;20197;-75
2021/05/05 05:05:48;;;;;;;13.43;5.10;;;6.80;99.90;;;;;;5082714;28;20170;-75
2021/05/05 05:08:13;;;;;;;14.00;5.20;;;6.90;99.90;;;;;;5091588;28;20246;-75
2021/05/05 05:10:39;;;;;;;8.63;5.17;;;7.00;99.90;;;;;;5065956;28;20170;-75
2021/05/05 05:13:06;;;;;;;8.23;4.83;;;7.20;99.90;;;;;;5072159;28;20169;-75
2021/05/05 05:15:32;;;;;;;14.60;6.10;;;7.30;99.90;;;;;;5080217;28;20172;-75
2021/05/05 05:17:57;;;;;;;5.63;5.00;;;7.40;99.90;;;;;;5054659;28;20523;-74
2021/05/05 05:20:23;;;;;;;6.60;4.30;;;7.60;99.90;;;;;;5063985;28;20187;-75
2021/05/05 05:22:51;;;;;;;12.07;5.47;;;7.60;99.90;;;;;;5061514;28;20181;-75
2021/05/05 05:25:17;;;;;;;7.47;4.00;;;7.60;99.90;;;;;;5072667;28;20190;-75
2021/05/05 05:27:42;;;;;;;9.30;4.40;;;7.50;99.90;;;;;;5079962;28;20461;-75
2021/05/05 05:30:09;;;;;;;8.60;4.47;;;7.60;99.90;;;;;;5067040;28;20463;-76
2021/05/05 05:32:34;;;;;;;10.30;4.63;;;7.60;99.90;;;;;;5075061;28;20296;-75
2021/05/05 05:35:00;;;;;;;7.73;5.30;;;7.60;99.90;;;;;;5078287;28;20938;-75
2021/05/05 05:37:26;;;;;;;8.43;5.10;;;7.60;99.90;;;;;;5074771;28;20492;-75
2021/05/05 05:39:51;;;;;;;10.10;4.50;;;7.50;99.90;;;;;;5077082;28;20194;-75
2021/05/05 05:42:17;;;;;;;7.03;4.13;;;7.50;99.90;;;;;;5074867;28;20169;-75
2021/05/05 05:44:42;;;;;;;9.33;4.40;;;7.70;99.90;;;;;;5092037;28;20830;-75
2021/05/05 05:47:08;;;;;;;7.70;4.50;;;7.70;99.90;;;;;;5085518;28;20245;-76
2021/05/05 05:49:33;;;;;;;18.63;5.50;;;7.80;99.90;;;;;;5074727;28;20311;-75
2021/05/05 05:51:59;;;;;;;17.57;9.37;;;7.80;99.90;;;;;;5073883;28;20173;-76
2021/05/05 05:54:25;;;;;;;11.00;6.93;;;7.80;99.90;;;;;;5085677;28;20658;-74
2021/05/05 05:56:50;;;;;;;8.90;5.00;;;7.80;99.90;;;;;;5093417;28;20887;-75
2021/05/05 05:59:16;;;;;;;12.87;5.97;;;8.00;99.90;;;;;;5089568;28;20174;-76
2021/05/05 06:01:41;;;;;;;8.73;5.83;;;8.10;99.90;;;;;;5092029;28;20635;-76
2021/05/05 06:04:07;;;;;;;9.93;5.33;;;8.10;99.90;;;;;;5091454;28;20190;-76
2021/05/05 06:06:33;;;;;;;11.43;6.57;;;8.10;99.90;;;;;;5088392;28;20269;-75
2021/05/05 06:08:58;;;;;;;8.63;5.77;;;8.00;99.90;;;;;;5075303;28;20714;-76
2021/05/05 06:11:24;;;;;;;13.83;6.07;;;8.10;99.90;;;;;;5086567;28;20178;-76
2021/05/05 06:13:50;;;;;;;11.07;6.13;;;8.30;99.90;;;;;;5092949;28;20197;-76
2021/05/05 06:16:17;;;;;;;9.43;5.30;;;8.40;99.90;;;;;;5090185;28;20174;-76
2021/05/05 06:18:42;;;;;;;10.00;6.00;;;8.40;99.90;;;;;;5090791;28;20182;-76
2021/05/05 06:21:08;;;;;;;12.10;6.00;;;8.20;99.90;;;;;;5065599;28;20436;-77
2021/05/05 06:23:33;;;;;;;9.27;5.67;;;8.30;99.90;;;;;;5091329;28;20283;-76
2021/05/05 06:25:59;;;;;;;11.50;5.87;;;8.40;99.90;;;;;;5075040;28;20182;-76
2021/05/05 06:28:25;;;;;;;8.90;5.93;;;8.50;99.90;;;;;;5092820;28;20209;-76
2021/05/05 06:30:50;;;;;;;6.07;4.77;;;8.40;99.90;;;;;;5085217;28;20173;-77
2021/05/05 06:33:16;;;;;;;9.30;5.60;;;8.60;99.90;;;;;;5073100;28;20173;-76
2021/05/05 06:35:41;;;;;;;9.80;5.63;;;8.80;99.90;;;;;;5073609;28;20639;-76
2021/05/05 06:38:07;;;;;;;8.53;5.23;;;8.80;99.90;;;;;;5072533;28;20790;-77
2021/05/05 06:40:32;;;;;;;14.77;5.67;;;8.60;99.90;;;;;;5071531;28;20265;-76
2021/05/05 06:42:58;;;;;;;7.17;5.10;;;8.50;99.90;;;;;;5078503;28;20199;-77
2021/05/05 06:45:23;;;;;;;11.70;4.93;;;8.60;99.90;;;;;;5091731;28;20271;-77
2021/05/05 06:47:49;;;;;;;9.93;4.13;;;9.30;99.90;;;;;;5084108;28;20189;-77
2021/05/05 06:50:16;;;;;;;10.97;5.80;;;9.50;99.90;;;;;;5083822;28;20273;-76
2021/05/05 06:52:41;;;;;;;6.03;4.90;;;8.60;99.90;;;;;;5075496;28;20167;-76
2021/05/05 06:55:09;;;;;;;5.50;4.80;;;8.40;99.90;;;;;;5082684;28;20585;-76
2021/05/05 06:57:36;;;;;;;7.73;5.10;;;7.90;99.90;;;;;;5070202;28;20248;-75
2021/05/05 07:00:03;;;;;;;5.10;3.00;;;7.50;99.90;;;;;;5075945;28;20432;-76
2021/05/05 07:02:28;;;;;;;5.97;2.37;;;7.40;99.90;;;;;;5092348;28;20774;-75
2021/05/05 07:04:54;;;;;;;1.67;1.50;;;7.30;99.90;;;;;;5086069;28;20485;-75
2021/05/05 07:07:19;;;;;;;1.13;1.03;;;6.80;99.90;;;;;;5092465;28;20173;-75
2021/05/05 07:09:47;;;;;;;1.60;1.50;;;6.70;99.90;;;;;;5085789;28;20301;-75
2021/05/05 07:12:13;;;;;;;10.70;2.60;;;6.40;99.90;;;;;;5079525;28;20249;-75
2021/05/05 07:14:38;;;;;;;4.00;3.00;;;6.40;99.90;;;;;;5069632;28;20540;-75
2021/05/05 07:17:04;;;;;;;4.10;3.30;;;6.60;99.90;;;;;;5083830;28;20175;-76
2021/05/05 07:19:29;;;;;;;6.10;4.00;;;6.60;99.90;;;;;;5081391;28;20189;-75
2021/05/05 07:21:55;;;;;;;6.70;4.23;;;6.60;99.90;;;;;;5053949;28;20169;-75
2021/05/05 07:24:20;;;;;;;7.13;5.30;;;6.70;99.90;;;;;;5072558;28;20178;-75
2021/05/05 07:26:46;;;;;;;8.50;7.27;;;6.90;99.90;;;;;;5079177;28;20182;-77
2021/05/05 07:29:12;;;;;;;7.90;5.23;;;7.40;99.90;;;;;;5072285;28;20359;-76
2021/05/05 07:31:37;;;;;;;4.70;4.20;;;7.90;99.90;;;;;;5071511;28;20185;-77
2021/05/05 07:34:03;;;;;;;7.53;4.40;;;8.70;99.90;;;;;;5073189;28;20209;-77
2021/05/05 07:36:28;;;;;;;7.07;4.67;;;9.40;99.90;;;;;;5056240;28;20961;-76
2021/05/05 07:47:02;;;;;;;4.37;3.80;;;9.40;99.90;;;;;;5081164;28;20547;-76
2021/05/05 07:49:30;;;;;;;7.43;6.20;;;9.30;99.90;;;;;;5069604;28;20567;-76
2021/05/05 07:51:56;;;;;;;5.97;5.40;;;9.10;99.90;;;;;;5074462;28;20444;-76
2021/05/05 07:54:22;;;;;;;4.80;4.37;;;9.10;99.90;;;;;;5073723;28;20453;-76
2021/05/05 07:56:48;;;;;;;7.30;5.47;;;9.20;99.90;;;;;;5085875;28;20242;-76
2021/05/05 07:59:14;;;;;;;6.43;4.53;;;9.00;99.90;;;;;;5072005;28;20930;-77
2021/05/05 08:01:40;;;;;;;8.03;3.83;;;9.10;99.90;;;;;;5067835;28;20264;-76
2021/05/05 08:04:06;;;;;;;7.40;5.03;;;9.40;99.90;;;;;;5092216;28;20268;-77
2021/05/05 08:06:32;;;;;;;5.63;4.23;;;9.90;99.90;;;;;;5072170;28;21060;-78
2021/05/05 08:08:59;;;;;;;4.20;3.80;;;10.20;99.90;;;;;;5085044;28;20512;-76
2021/05/05 08:11:26;;;;;;;9.00;4.57;;;10.00;99.90;;;;;;5073306;28;20802;-76
2021/05/05 08:13:54;;;;;;;12.53;4.17;;;10.10;99.90;;;;;;5058479;28;20455;-75
2021/05/05 08:16:20;;;;;;;5.00;4.00;;;9.80;99.90;;;;;;5078730;28;20438;-76
2021/05/05 08:18:47;;;;;;;6.97;5.80;;;9.80;99.90;;;;;;5092833;28;20443;-76
2021/05/05 08:21:12;;;;;;;7.50;5.70;;;9.50;99.90;;;;;;5090360;28;20453;-76
2021/05/05 08:23:39;;;;;;;6.87;5.17;;;9.00;99.90;;;;;;5081977;28;20858;-76
2021/05/05 08:26:05;;;;;;;9.40;5.90;;;8.80;99.90;;;;;;5069676;28;20256;-75
2021/05/05 08:28:31;;;;;;;5.60;5.10;;;8.60;99.90;;;;;;5065329;28;20493;-75
2021/05/05 08:30:58;;;;;;;4.60;4.20;;;8.40;99.90;;;;;;5082989;28;20427;-76
2021/05/05 08:33:24;;;;;;;4.30;3.90;;;8.10;99.90;;;;;;5067647;28;20482;-75
2021/05/05 08:35:49;;;;;;;7.07;4.53;;;7.80;99.90;;;;;;5082250;28;20455;-75
2021/05/05 08:38:15;;;;;;;4.40;3.93;;;7.70;99.90;;;;;;5074931;28;20436;-75
2021/05/05 08:40:41;;;;;;;5.50;4.40;;;7.60;99.90;;;;;;5069258;28;20873;-76
2021/05/05 08:43:06;;;;;;;4.93;4.53;;;7.60;99.90;;;;;;5063890;28;20858;-75
2021/05/05 08:45:32;;;;;;;4.23;3.83;;;7.50;99.90;;;;;;5073102;28;20697;-76
2021/05/05 08:48:00;;;;;;;5.40;4.00;;;7.60;99.90;;;;;;5089741;28;20198;-75
2021/05/05 08:50:29;;;;;;;4.13;3.83;;;7.70;99.90;;;;;;5082652;28;20424;-76
2021/05/05 08:52:56;;;;;;;4.20;3.30;;;7.60;99.90;;;;;;5072234;28;20396;-75
2021/05/05 08:55:24;;;;;;;5.80;3.63;;;7.70;99.90;;;;;;5058430;28;20444;-76
2021/05/05 08:57:50;;;;;;;4.50;3.30;;;7.70;99.90;;;;;;5075058;28;20428;-76
2021/05/05 09:00:22;;;;;;;3.90;2.90;;;7.90;99.90;;;;;;5055961;28;20432;-75
2021/05/05 09:02:48;;;;;;;2.80;2.53;;;8.00;99.90;;;;;;5089113;28;20435;-76
2021/05/05 09:05:15;;;;;;;3.20;2.93;;;8.10;99.90;;;;;;5089749;28;20458;-76
2021/05/05 09:07:42;;;;;;;3.40;3.10;;;8.40;99.90;;;;;;5093311;28;20451;-78
2021/05/05 09:10:23;;;;;;;3.43;3.13;;;9.10;99.90;;;;;;5079633;28;20443;-79
2021/05/05 09:12:54;;;;;;;4.03;3.13;;;9.90;99.90;;;;;;5063522;28;20439;-79
2021/05/05 09:15:28;;;;;;;3.80;3.00;;;10.80;99.90;;;;;;5077952;28;20426;-78
2021/05/05 09:17:56;;;;;;;4.40;2.67;;;11.20;99.90;;;;;;5075169;28;20569;-78
2021/05/05 09:20:24;;;;;;;6.37;3.10;;;12.00;99.90;;;;;;5074889;28;20460;-78
2021/05/05 09:22:53;;;;;;;12.43;3.23;;;12.60;99.90;;;;;;5075109;28;20818;-79
2021/05/05 09:25:23;;;;;;;4.63;2.60;;;13.00;99.90;;;;;;5075221;28;20443;-78
2021/05/05 09:28:19;;;;;;;5.63;2.90;;;12.10;99.90;;;;;;5075302;28;20535;-79
2021/05/05 09:30:50;;;;;;;6.60;2.87;;;12.40;99.90;;;;;;5063402;28;20419;-79
2021/05/05 09:33:34;;;;;;;4.47;3.07;;;12.70;99.90;;;;;;5078235;28;20456;-79
2021/05/05 09:36:05;;;;;;;4.00;2.77;;;12.80;99.90;;;;;;5063881;28;20416;-79
2021/05/05 09:38:49;;;;;;;4.07;2.50;;;12.30;99.90;;;;;;5061051;28;20428;-79
2021/05/05 09:41:17;;;;;;;6.17;3.13;;;12.50;99.90;;;;;;5057831;28;20498;-78
2021/05/05 09:43:42;;;;;;;6.87;2.93;;;12.70;99.90;;;;;;5074559;28;20446;-78
2021/05/05 09:46:30;;;;;;;3.60;2.53;;;12.70;99.90;;;;;;5074648;28;20500;-77
2021/05/05 09:49:20;;;;;;;5.40;3.43;;;12.60;99.90;;;;;;5071222;28;20186;-77
2021/05/05 09:51:52;;;;;;;5.50;3.17;;;11.80;99.90;;;;;;5074036;28;20448;-77
2021/05/05 09:54:40;;;;;;;4.70;3.30;;;11.80;99.90;;;;;;5076453;28;20444;-77
2021/05/05 09:57:30;;;;;;;5.37;3.70;;;12.10;99.90;;;;;;5056621;28;20453;-78
2021/05/05 09:59:58;;;;;;;8.60;3.07;;;12.60;99.90;;;;;;5061064;28;20477;-78
2021/05/05 10:02:25;;;;;;;5.37;2.80;;;12.90;99.90;;;;;;5075762;28;20419;-78
2021/05/05 10:05:18;;;;;;;4.00;2.90;;;12.90;99.90;;;;;;5075784;28;20437;-78
2021/05/05 10:07:53;;;;;;;5.67;3.03;;;12.90;99.90;;;;;;5071142;28;21044;-79
2021/05/05 10:10:19;;;;;;;7.10;3.10;;;13.00;99.90;;;;;;5076824;28;20479;-79
2021/05/05 10:12:45;;;;;;;4.20;3.10;;;13.10;99.90;;;;;;5060171;28;20420;-79
2021/05/05 10:15:12;;;;;;;8.27;2.90;;;13.20;99.90;;;;;;5075692;28;20439;-77
2021/05/05 10:17:38;;;;;;;5.67;2.97;;;13.00;99.90;;;;;;5074028;28;20400;-77
2021/05/05 10:20:05;;;;;;;9.53;3.20;;;12.80;99.90;;;;;;5073433;28;20396;-78
2021/05/05 10:22:31;;;;;;;5.77;3.47;;;12.90;99.90;;;;;;5074630;28;20416;-77
2021/05/05 10:24:57;;;;;;;5.57;2.80;;;13.10;99.90;;;;;;5074863;28;20501;-76
2021/05/05 10:27:24;;;;;;;4.97;2.83;;;12.70;99.90;;;;;;5065459;28;20448;-77
2021/05/05 10:29:51;;;;;;;8.13;3.20;;;12.70;99.90;;;;;;5071919;28;20424;-77
2021/05/05 10:32:20;;;;;;;4.03;2.90;;;12.60;99.90;;;;;;5060820;28;20777;-77
2021/05/05 10:34:50;;;;;;;7.30;3.00;;;12.80;99.90;;;;;;5073514;28;20450;-77
2021/05/05 10:37:16;;;;;;;4.07;2.63;;;13.10;99.90;;;;;;5073496;28;20409;-77
2021/05/05 10:39:43;;;;;;;3.77;3.30;;;13.10;99.90;;;;;;5072803;28;20486;-77
2021/05/05 10:42:18;;;;;;;3.70;2.37;;;12.90;99.90;;;;;;5073578;28;20425;-77
2021/05/05 10:44:51;;;;;;;2.70;2.40;;;13.20;99.90;;;;;;5071636;28;20428;-77
2021/05/05 10:47:34;;;;;;;9.70;3.90;;;13.40;99.90;;;;;;5056410;28;20440;-77
2021/05/05 10:50:04;;;;;;;6.40;3.70;;;13.20;99.90;;;;;;5073475;28;20420;-77
2021/05/05 10:52:42;;;;;;;7.10;3.10;;;13.00;99.90;;;;;;5073311;28;20490;-77
2021/05/05 10:55:12;;;;;;;7.60;2.73;;;12.20;99.90;;;;;;5073412;28;20423;-78
2021/05/05 10:57:39;;;;;;;9.10;3.53;;;13.00;99.90;;;;;;5073824;28;20426;-78
2021/05/05 11:00:07;;;;;;;3.70;2.27;;;13.30;99.90;;;;;;5056676;28;20419;-79
2021/05/05 11:02:59;;;;;;;4.23;2.30;;;14.00;99.90;;;;;;5060161;28;20429;-79
2021/05/05 11:05:27;;;;;;;2.80;2.30;;;14.80;99.90;;;;;;5063531;28;20491;-80
2021/05/05 11:08:07;;;;;;;6.60;2.93;;;14.60;99.90;;;;;;5063951;28;20444;-79
2021/05/05 11:10:38;;;;;;;3.00;2.13;;;14.90;99.90;;;;;;5066779;28;20450;-79
2021/05/05 11:13:19;;;;;;;3.97;2.23;;;15.10;99.90;;;;;;5076801;28;20838;-79
2021/05/05 11:15:45;;;;;;;4.67;2.10;;;15.30;99.90;;;;;;5059258;28;20409;-78
2021/05/05 11:18:29;;;;;;;3.20;2.20;;;14.90;99.90;;;;;;5059532;28;20436;-79
2021/05/05 11:21:05;;;;;;;9.70;3.67;;;14.10;99.90;;;;;;5058712;28;20186;-78
2021/05/05 11:23:38;;;;;;;26.33;4.53;;;13.70;99.90;;;;;;5056322;28;20451;-77
2021/05/05 11:26:20;;;;;;;3.77;2.80;;;13.70;99.90;;;;;;5071598;28;20439;-77
2021/05/05 11:28:50;;;;;;;11.33;3.33;;;13.70;99.90;;;;;;5072580;28;20452;-77
2021/05/05 11:31:17;;;;;;;10.20;4.10;;;13.40;99.90;;;;;;5054616;28;20502;-77
2021/05/05 11:34:02;;;;;;;4.33;2.40;;;13.10;99.90;;;;;;5038171;28;20900;-77
2021/05/05 11:36:28;;;;;;;4.70;2.73;;;12.90;99.90;;;;;;5072106;28;20460;-77
2021/05/05 11:38:54;;;;;;;5.30;2.90;;;12.70;99.90;;;;;;5073815;28;20421;-77
2021/05/05 11:41:21;;;;;;;7.60;3.00;;;12.70;99.90;;;;;;5073713;28;20170;-78
2021/05/05 11:43:48;;;;;;;3.77;2.80;;;13.00;99.90;;;;;;5055547;28;20296;-77
2021/05/05 11:46:14;;;;;;;4.23;2.60;;;13.20;99.90;;;;;;5055464;28;20423;-77
2021/05/05 11:48:42;;;;;;;6.67;2.80;;;13.50;99.90;;;;;;5062111;28;20448;-77
2021/05/05 11:51:17;;;;;;;8.00;3.00;;;13.50;99.90;;;;;;5056690;28;20178;-78
2021/05/05 11:53:42;;;;;;;4.50;2.50;;;13.80;99.90;;;;;;5056989;28;20435;-77
2021/05/05 11:56:22;;;;;;;6.60;2.97;;;13.60;99.90;;;;;;5057806;28;20417;-77
2021/05/05 11:58:55;;;;;;;5.73;2.77;;;13.50;99.90;;;;;;5072165;28;20275;-77
2021/05/05 12:01:51;;;;;;;6.23;2.90;;;13.50;99.90;;;;;;5073688;28;20762;-78
2021/05/05 12:04:33;;;;;;;5.57;2.67;;;13.60;99.90;;;;;;5056261;28;20476;-78
2021/05/05 12:07:00;;;;;;;4.27;2.67;;;14.00;99.90;;;;;;5042909;28;20416;-78
2021/05/05 12:09:32;;;;;;;3.13;2.43;;;14.50;99.90;;;;;;5077009;28;20467;-78
2021/05/05 12:12:18;;;;;;;3.47;2.53;;;14.80;99.90;;;;;;5075994;28;20423;-78
2021/05/05 12:14:48;;;;;;;7.63;3.00;;;14.50;99.90;;;;;;5075293;28;20515;-78
2021/05/05 12:17:28;;;;;;;3.97;1.93;;;14.20;99.90;;;;;;5056673;28;20412;-78
2021/05/05 12:19:56;;;;;;;2.63;1.83;;;14.20;99.90;;;;;;5074303;28;20400;-78
2021/05/05 12:22:22;;;;;;;2.67;2.10;;;14.50;97.10;;;;;;5075167;28;20420;-78
2021/05/05 12:25:11;;;;;;;3.57;2.53;;;14.60;97.80;;;;;;5057151;28;20515;-78
2021/05/05 12:27:38;;;;;;;5.00;2.37;;;14.70;97.00;;;;;;5057129;28;20443;-78
2021/05/05 12:30:07;;;;;;;2.27;1.93;;;14.80;94.70;;;;;;5041080;28;20414;-79
2021/05/05 12:32:47;;;;;;;9.03;2.60;;;15.20;97.80;;;;;;5075994;28;20785;-78
2021/05/05 12:35:23;;;;;;;4.43;1.70;;;15.00;94.90;;;;;;5075506;28;20439;-79
2021/05/05 12:37:50;;;;;;;3.23;1.30;;;14.30;93.40;;;;;;5055979;28;20897;-78
2021/05/05 12:40:16;;;;;;;2.57;2.07;;;13.70;86.80;;;;;;5072976;28;20404;-78
2021/05/05 12:42:42;;;;;;;3.50;1.90;;;13.60;95.30;;;;;;5055426;28;20425;-78
2021/05/05 12:45:13;;;;;;;5.27;2.30;;;13.90;95.30;;;;;;5054964;28;20444;-77
2021/05/05 12:47:40;;;;;;;3.33;2.10;;;13.90;99.90;;;;;;5071641;28;20452;-77
2021/05/05 12:50:08;;;;;;;3.27;2.20;;;13.40;99.90;;;;;;5071763;28;20482;-77
2021/05/05 12:52:37;;;;;;;6.43;2.33;;;12.80;99.90;;;;;;5053830;28;20435;-76
2021/05/05 12:55:26;;;;;;;5.67;2.20;;;12.70;99.90;;;;;;5053392;28;20452;-77
2021/05/05 12:58:07;;;;;;;2.73;1.70;;;12.40;99.90;;;;;;5050192;28;20412;-76
2021/05/05 13:00:35;;;;;;;6.03;2.13;;;12.20;99.90;;;;;;5053751;28;20422;-77
2021/05/05 13:03:01;;;;;;;3.07;2.20;;;12.10;99.90;;;;;;5072671;28;20420;-77
2021/05/05 13:05:27;;;;;;;8.20;2.30;;;12.50;99.90;;;;;;5072962;28;20444;-77